No.3tokuyomaru — JD3132 — position and weather

sailwx.info

Track history (hours):
 
Tides and Currents Weather Stations Pressure Air Temp Water Temp Dewpoint Dewpoint Depression Visibility Wind Speed Wind Dir Waves Ship Positions

No.3tokuyomaru

Last reported at 2016-Dec-03 06:13 UTC. Time now 2016-Dec-06 14:12 UTC.
Position N 35°20' E 139°43'.

Length 67 m; draft 4.6 m.

Type: Tanker. MMSI: 431002151.

Date/timePositionNaut miles runAvg speedWind from/ knotsBaromVisibWave heightAir tempDewpointWater temp
2016-Dec-03 06:13N 35°20' E 139°43'711.3
2016-Dec-03 05:33N 35°27' E 139°47'13 2.3
2016-Dec-03 00:12N 35°31' E 140°01'6 1.6
2016-Dec-02 20:07N 35°28' E 139°54'711.8
2016-Dec-02 19:34N 35°25' E 139°47'1211.5
2016-Dec-02 18:33N 35°13' E 139°47'8 0.2
2016-Dec-01 08:09N 35°06' E 139°45'1710.6
2016-Dec-01 06:33N 35°23' E 139°42'9 9.1
2016-Dec-01 05:33N 35°31' E 139°46'0 0.0
2016-Dec-01 01:19N 35°31' E 139°46'2 3.2
2016-Dec-01 00:33N 35°30' E 139°48'1 0.6
2016-Nov-30 23:33N 35°29' E 139°49'0 0.0
2016-Nov-30 22:33N 35°29' E 139°49'0 0.0
2016-Nov-30 21:33N 35°29' E 139°49'0 0.0
2016-Nov-30 20:33N 35°29' E 139°49'0 0.0
2016-Nov-30 19:33N 35°29' E 139°49'0 0.0
2016-Nov-30 18:33N 35°29' E 139°49'1 0.9
2016-Nov-30 17:33N 35°29' E 139°49'1212.2
2016-Nov-30 16:33N 35°16' E 139°46'  
2016-Nov-28 05:33N 35°21' E 139°43'1211.9
2016-Nov-28 04:33N 35°30' E 139°52'1 0.2
2016-Nov-27 22:33N 35°29' E 139°53'1111.4
2016-Nov-27 21:33N 35°20' E 139°44'1110.9
2016-Nov-27 20:31N 35°08' E 139°45'  
Track history (hours):
 
Tides and Currents Weather Stations Pressure Air Temp Water Temp Dewpoint Dewpoint Depression Visibility Wind Speed Wind Dir Waves Ship Positions

No.3tokuyomaru

Last reported at 2016-Dec-03 06:13 UTC. Time now 2016-Dec-06 14:12 UTC.
Position N 35°20' E 139°43'.

Length 67 m; draft 4.6 m.

Type: Tanker. MMSI: 431002151.

Date/timePositionNaut miles runAvg speedWind from/ knotsBaromVisibWave heightAir tempDewpointWater temp
2016-Dec-03 06:13N 35°20' E 139°43'711.3
2016-Dec-03 05:33N 35°27' E 139°47'13 2.3
2016-Dec-03 00:12N 35°31' E 140°01'6 1.6
2016-Dec-02 20:07N 35°28' E 139°54'711.8
2016-Dec-02 19:34N 35°25' E 139°47'1211.5
2016-Dec-02 18:33N 35°13' E 139°47'8 0.2
2016-Dec-01 08:09N 35°06' E 139°45'1710.6
2016-Dec-01 06:33N 35°23' E 139°42'9 9.1
2016-Dec-01 05:33N 35°31' E 139°46'0 0.0
2016-Dec-01 01:19N 35°31' E 139°46'2 3.2
2016-Dec-01 00:33N 35°30' E 139°48'1 0.6
2016-Nov-30 23:33N 35°29' E 139°49'0 0.0
2016-Nov-30 22:33N 35°29' E 139°49'0 0.0
2016-Nov-30 21:33N 35°29' E 139°49'0 0.0
2016-Nov-30 20:33N 35°29' E 139°49'0 0.0
2016-Nov-30 19:33N 35°29' E 139°49'0 0.0
2016-Nov-30 18:33N 35°29' E 139°49'1 0.9
2016-Nov-30 17:33N 35°29' E 139°49'1212.2
2016-Nov-30 16:33N 35°16' E 139°46'  
2016-Nov-28 05:33N 35°21' E 139°43'1211.9
2016-Nov-28 04:33N 35°30' E 139°52'1 0.2
2016-Nov-27 22:33N 35°29' E 139°53'1111.4
2016-Nov-27 21:33N 35°20' E 139°44'1110.9
2016-Nov-27 20:31N 35°08' E 139°45'  

Dump ship's entire track history